Aérodrome :
LOGIN :

S'inscrire | Disclaimer

   EN    FR    IT 

 










Légende :    VFR   VFR Marginal   IFR   IFR Intensif   IFR Très Intensif
Visi : 
Plafond : 
>= 8 km
>= 3000ft
5 à 8 km
1000 à 3000 ft
1500m à 5 km
500 à 1000 ft
800 à 1500m
200 à 500 ft
< 800m
< 200 ft
Symboles :   Orages  Brouillard  Fortes neiges  Fortes précipitations  Vent > 20 kt
SIGMETs :   Divers  Orages  Givrage  Turbulence  Onde Orograph.  Cendres Volcan.






- Altitude de l'aérodrome : 277 ft
- Code IATA : JER


EGJJ - Jersey

DERNIER METAR :
  • 171750Z 27017KT 9999 VCSH FEW018CB SCT026 07/04 Q1020

METARs EXPIRÉS :
  • 171720Z 26019KT 9999 VCSH FEW020CB FEW028 08/05 Q1019
  • 171650Z 27022KT 9999 -SHRA FEW020CB BKN027 07/04 Q1019
  • 171620Z 25024G36KT 9999 -SHRA FEW020CB SCT028 08/05 Q1018
  • 171550Z 25022KT 9999 VCSH FEW019CB FEW030 08/05 Q1018
  • 171520Z 26021KT 9999 -SHRA FEW018CB BKN033 08/05 Q1018 RESHRA

TAF TAF EGJJ
Valide du 17 à 18h jusqu'au 18 à 03h UTC


171657Z 1718/1803 27021KT 9999 FEW018
TEMPO 1718/1719 26026G40KT 6000 SHRA BKN015CB
PROB30
TEMPO 1718/1719 3000 SHRAGS
PROB30
TEMPO 1719/1803 8000 SHRA BKN015
ATIS : +44 1534 498 073



MET'MAP, la Météo Aéronautique d'un coup d'oeil ! - Copyright ORBIFLY Décembre 2007 - Disclaimer

ORBIFLY MET'MAP TEAM :

Programmation & Développement : Alexandra Zaïnal
Sur une idée originale de : Baudouin d'Aumeries
Assistance à la programmation : Marc-Olivier Méhu
Soutien technique & logistique : Manuel Goepfert

Contact : metmap@orbifly.com




SOURCES & CREDITS :

   NOAA